Time;durP1;ratioP1;P1;durP2;ratioP2;P2;SDS_P1;SDS_P2;PMS_P1;PMS_P2;Temp;Humidity;BMP_temperature;BMP_pressure;BME280_temperature;BME280_humidity;BME280_pressure;Samples;Min_cycle;Max_cycle;Signal;HPM_P1;HPM_P2
2022/05/17 00:00:58;;;;;;;8.48;3.00;;;;;;;15.03;80.29;101755.53;5021583;28;20029;-83
2022/05/17 00:03:24;;;;;;;6.25;2.78;;;;;;;15.04;80.02;101762.41;5025719;28;20064;-84
2022/05/17 00:05:50;;;;;;;5.93;2.22;;;;;;;14.90;80.08;101763.84;5024335;28;20083;-82
2022/05/17 00:08:17;;;;;;;9.38;2.88;;;;;;;14.77;80.46;101767.75;5024028;28;20041;-84
2022/05/17 00:10:43;;;;;;;5.60;2.42;;;;;;;14.73;80.72;101765.59;5024449;28;20037;-84
2022/05/17 00:13:09;;;;;;;6.30;2.60;;;;;;;14.67;80.76;101763.63;5024729;28;20030;-83
2022/05/17 00:15:36;;;;;;;7.13;2.45;;;;;;;14.58;81.05;101762.81;5022538;28;20554;-83
2022/05/17 00:18:03;;;;;;;5.43;2.58;;;;;;;14.56;80.83;101767.31;5021842;28;20029;-83
2022/05/17 00:20:28;;;;;;;5.47;2.30;;;;;;;14.54;81.03;101766.66;5022955;28;20479;-83
2022/05/17 00:22:54;;;;;;;4.35;2.17;;;;;;;14.52;80.85;101772.06;5024953;28;20041;-84
2022/05/17 00:25:23;;;;;;;5.90;3.10;;;;;;;14.52;80.98;101771.22;5025426;28;20545;-83
2022/05/17 00:27:49;;;;;;;7.30;3.00;;;;;;;14.54;80.91;101766.66;5022695;28;20401;-83
2022/05/17 00:30:14;;;;;;;6.72;2.53;;;;;;;14.56;80.82;101769.94;5039463;28;21250;-83
2022/05/17 00:32:40;;;;;;;8.23;2.72;;;;;;;14.58;80.75;101760.22;5009244;28;20067;-83
2022/05/17 00:35:06;;;;;;;7.00;2.97;;;;;;;14.54;80.91;101770.13;5020965;28;20072;-83
2022/05/17 00:37:32;;;;;;;8.80;2.92;;;;;;;14.53;80.87;101767.66;5040580;28;20441;-83
2022/05/17 00:39:58;;;;;;;4.53;2.95;;;;;;;14.40;81.67;101763.69;5019669;28;20038;-83
2022/05/17 00:42:23;;;;;;;4.65;2.65;;;;;;;14.34;81.63;101760.91;5023382;28;20068;-83
2022/05/17 00:44:49;;;;;;;8.73;2.72;;;;;;;14.32;81.48;101763.66;5023179;28;20030;-84
2022/05/17 00:47:27;;;;;;;5.60;3.30;;;;;;;14.32;81.23;101757.63;5003490;28;20025;-83
2022/05/17 00:50:03;;;;;;;6.25;3.20;;;;;;;14.28;81.27;101769.34;5021300;28;20045;-83
2022/05/17 00:52:41;;;;;;;4.47;2.53;;;;;;;14.26;81.25;101766.06;5026107;28;20800;-83
2022/05/17 00:55:14;;;;;;;7.25;3.03;;;;;;;14.11;81.37;101766.69;5027117;28;20120;-83
2022/05/17 00:57:49;;;;;;;5.93;2.95;;;;;;;14.04;81.65;101768.25;5029046;28;20037;-83
2022/05/17 01:00:19;;;;;;;6.28;2.53;;;;;;;13.99;81.80;101766.13;5025856;28;20191;-84
2022/05/17 01:02:50;;;;;;;8.02;2.53;;;;;;;14.00;81.87;101765.16;5025805;28;20394;-84
2022/05/17 01:05:18;;;;;;;6.40;4.22;;;;;;;14.02;81.79;101760.59;5027195;28;20565;-81
2022/05/17 01:07:51;;;;;;;9.85;3.10;;;;;;;14.00;82.01;101764.34;5023109;28;20022;-83
2022/05/17 01:10:17;;;;;;;4.97;2.63;;;;;;;13.95;82.16;101764.78;5024572;28;20151;-84
2022/05/17 01:12:43;;;;;;;7.68;3.45;;;;;;;13.80;82.63;101761.94;5027630;28;20080;-83
2022/05/17 01:15:11;;;;;;;9.73;2.90;;;;;;;13.69;82.99;101759.56;5023357;28;20056;-82
2022/05/17 01:17:40;;;;;;;7.53;2.65;;;;;;;13.62;83.31;101759.38;5024211;28;20099;-83
2022/05/17 01:20:10;;;;;;;9.48;2.83;;;;;;;13.56;83.47;101759.16;5027916;28;20429;-83
2022/05/17 01:22:36;;;;;;;4.88;2.72;;;;;;;13.54;83.83;101761.09;5026345;28;20037;-84
2022/05/17 01:25:02;;;;;;;5.20;2.80;;;;;;;13.53;83.65;101762.91;5027202;28;20423;-83
2022/05/17 01:27:33;;;;;;;9.25;3.55;;;;;;;13.53;83.91;101770.72;5025970;28;20469;-83
2022/05/17 01:29:58;;;;;;;7.97;3.25;;;;;;;13.58;83.90;101765.03;5028766;28;20055;-83
2022/05/17 01:32:24;;;;;;;12.27;3.80;;;;;;;13.61;83.65;101759.53;5008752;28;20667;-83
2022/05/17 01:34:50;;;;;;;9.57;2.88;;;;;;;13.63;83.78;101760.19;5024822;28;20500;-83
2022/05/17 01:37:16;;;;;;;6.43;3.20;;;;;;;13.64;83.54;101754.03;5025014;28;20037;-83
2022/05/17 01:39:44;;;;;;;6.13;3.35;;;;;;;13.58;83.42;101752.84;5008755;28;20505;-84
2022/05/17 01:42:11;;;;;;;6.40;3.33;;;;;;;13.50;83.97;101751.97;5027610;28;20040;-82
2022/05/17 01:44:37;;;;;;;4.72;2.83;;;;;;;13.37;84.14;101744.53;5025813;28;20164;-84
2022/05/17 01:47:03;;;;;;;6.15;3.30;;;;;;;13.29;84.51;101744.44;5023721;28;20124;-83
2022/05/17 01:49:29;;;;;;;7.93;3.50;;;;;;;13.24;84.83;101756.16;5022729;28;20490;-83
2022/05/17 01:51:54;;;;;;;7.97;3.03;;;;;;;13.25;84.86;101747.34;5032523;28;20085;-83
2022/05/17 01:54:20;;;;;;;4.90;3.10;;;;;;;13.28;84.47;101751.47;5026541;28;20026;-83
2022/05/17 01:56:47;;;;;;;7.78;3.63;;;;;;;13.28;84.69;101748.00;5027896;28;20039;-84
2022/05/17 01:59:13;;;;;;;6.80;3.30;;;;;;;13.27;84.63;101749.81;5024423;28;20113;-85
2022/05/17 02:01:40;;;;;;;5.30;3.17;;;;;;;13.28;84.55;101748.00;5005327;28;20110;-84
2022/05/17 02:04:05;;;;;;;7.63;3.33;;;;;;;13.31;84.33;101753.78;5025358;28;20029;-83
2022/05/17 02:06:31;;;;;;;6.05;3.17;;;;;;;13.32;84.19;101755.41;5025784;28;20478;-83
2022/05/17 02:08:58;;;;;;;6.55;3.10;;;;;;;13.33;84.41;101753.63;5025588;28;20637;-82
2022/05/17 02:11:24;;;;;;;5.97;3.05;;;;;;;13.32;84.48;101759.81;5041787;28;20033;-84
2022/05/17 02:13:49;;;;;;;4.82;2.67;;;;;;;13.32;84.35;101757.22;5028241;28;20617;-84
2022/05/17 02:16:15;;;;;;;8.75;3.35;;;;;;;13.30;84.40;101757.38;5028069;28;20554;-83
2022/05/17 02:18:40;;;;;;;5.10;3.00;;;;;;;13.30;84.49;101759.97;5009181;28;20389;-83
2022/05/17 02:21:06;;;;;;;5.63;3.50;;;;;;;13.29;84.55;101755.69;5023177;28;20105;-83
2022/05/17 02:23:32;;;;;;;6.82;3.10;;;;;;;13.27;84.55;101759.41;5024048;28;20137;-84
2022/05/17 02:25:58;;;;;;;7.85;3.80;;;;;;;13.23;84.55;101756.28;5021952;28;20296;-83
2022/05/17 02:28:23;;;;;;;4.90;3.08;;;;;;;13.12;85.10;101767.75;5024684;28;20930;-83
2022/05/17 02:30:49;;;;;;;8.65;3.90;;;;;;;13.03;85.38;101764.25;5025069;28;20080;-84
2022/05/17 02:33:16;;;;;;;8.00;3.20;;;;;;;13.00;85.70;101761.94;5021470;28;20033;-83
2022/05/17 02:35:42;;;;;;;6.75;3.35;;;;;;;13.00;85.72;101769.75;5021825;28;20040;-83
2022/05/17 02:38:09;;;;;;;10.63;4.60;;;;;;;12.94;86.58;101759.94;5023749;28;20045;-84
2022/05/17 02:40:34;;;;;;;7.95;3.30;;;;;;;12.96;86.77;101759.78;5021860;28;20414;-84
2022/05/17 02:43:01;;;;;;;10.48;3.60;;;;;;;12.94;86.73;101769.50;5025822;28;20025;-81
2022/05/17 02:45:26;;;;;;;7.85;3.60;;;;;;;12.88;86.89;101757.91;5023340;28;20038;-84
2022/05/17 02:47:52;;;;;;;9.48;3.40;;;;;;;12.84;86.94;101762.59;5038231;28;20029;-83
2022/05/17 02:50:19;;;;;;;7.45;3.28;;;;;;;12.81;86.96;101754.28;5021365;28;20454;-84
2022/05/17 02:52:44;;;;;;;9.25;4.00;;;;;;;12.76;87.17;101764.31;5037572;28;20037;-84
2022/05/17 02:55:10;;;;;;;6.15;3.55;;;;;;;12.76;87.39;101762.53;5025954;28;20052;-84
2022/05/17 02:57:36;;;;;;;9.20;4.25;;;;;;;12.77;87.72;101774.56;5008808;28;20030;-83
2022/05/17 03:00:05;;;;;;;11.40;4.65;;;;;;;12.80;87.76;101768.25;5023962;28;20144;-84
2022/05/17 03:02:31;;;;;;;6.97;3.60;;;;;;;12.77;87.48;101776.34;5024207;28;20103;-84
2022/05/17 03:04:56;;;;;;;9.68;4.07;;;;;;;12.74;87.51;101769.66;5022854;28;20478;-83
2022/05/17 03:07:22;;;;;;;9.45;4.38;;;;;;;12.65;87.67;101778.34;5022835;28;20160;-84
2022/05/17 03:09:47;;;;;;;8.88;3.50;;;;;;;12.59;87.77;101782.34;5023624;28;20052;-84
2022/05/17 03:12:13;;;;;;;9.77;3.65;;;;;;;12.58;87.97;101777.28;5007664;28;20041;-84
2022/05/17 03:14:38;;;;;;;9.05;3.65;;;;;;;12.58;87.82;101780.72;5023931;28;20038;-84
2022/05/17 03:17:12;;;;;;;7.50;3.83;;;;;;;12.58;87.68;101790.28;5023968;28;20036;-84
2022/05/17 03:19:38;;;;;;;8.27;4.80;;;;;;;12.55;87.82;101790.59;5007462;28;20033;-84
2022/05/17 03:22:04;;;;;;;12.85;4.07;;;;;;;12.51;88.20;101792.66;5024043;28;20029;-83
2022/05/17 03:24:29;;;;;;;7.70;3.25;;;;;;;12.46;88.89;101795.69;5023876;28;20040;-84
2022/05/17 03:26:55;;;;;;;8.43;3.67;;;;;;;12.41;89.36;101792.72;5023456;28;20030;-84
2022/05/17 03:29:20;;;;;;;8.40;4.05;;;;;;;12.39;89.53;101791.19;5038097;28;20497;-83
2022/05/17 03:31:46;;;;;;;5.90;3.42;;;;;;;12.39;89.68;101791.19;5027076;28;20068;-83
2022/05/17 03:34:11;;;;;;;7.60;3.72;;;;;;;12.41;89.77;101799.66;5023691;28;20116;-84
2022/05/17 03:36:37;;;;;;;15.40;4.00;;;;;;;12.44;89.82;101797.59;5022703;28;20037;-83
2022/05/17 03:39:02;;;;;;;6.72;3.92;;;;;;;12.50;89.57;101795.41;5020097;28;20038;-83
2022/05/17 03:41:28;;;;;;;5.50;3.65;;;;;;;12.52;89.83;101796.88;5022837;28;20116;-83
2022/05/17 03:43:54;;;;;;;7.60;4.30;;;;;;;12.56;90.08;101798.22;5023134;28;20036;-84
2022/05/17 03:46:20;;;;;;;7.00;3.88;;;;;;;12.61;90.48;101797.81;5021386;28;20037;-84
2022/05/17 03:48:46;;;;;;;8.93;4.15;;;;;;;12.60;90.75;101796.16;5007679;28;20026;-84
2022/05/17 03:51:13;;;;;;;8.43;4.05;;;;;;;12.58;91.07;101793.72;5024460;28;20553;-83
2022/05/17 03:53:39;;;;;;;8.73;3.88;;;;;;;12.58;91.47;101803.28;5006183;28;20044;-84
2022/05/17 03:56:04;;;;;;;8.07;4.18;;;;;;;12.59;91.44;101791.94;5009119;28;20038;-81
2022/05/17 03:58:30;;;;;;;10.23;4.60;;;;;;;12.60;91.83;101801.34;5024844;28;20033;-83
2022/05/17 04:00:55;;;;;;;7.05;4.28;;;;;;;12.60;92.08;101798.75;5025461;28;20045;-83
2022/05/17 04:03:21;;;;;;;6.78;4.30;;;;;;;12.61;92.35;101801.22;5023400;28;20041;-83
2022/05/17 04:05:47;;;;;;;7.25;4.50;;;;;;;12.61;92.50;101796.00;5022639;28;20063;-84
2022/05/17 04:08:12;;;;;;;9.98;4.43;;;;;;;12.62;92.88;101802.88;5022293;28;20045;-84
2022/05/17 04:10:37;;;;;;;8.23;4.88;;;;;;;12.65;93.36;101804.34;5021655;28;20049;-82
2022/05/17 04:13:06;;;;;;;6.90;4.32;;;;;;;12.66;93.52;101806.00;5024722;28;20037;-84
2022/05/17 04:15:32;;;;;;;8.93;4.35;;;;;;;12.70;93.76;101807.34;5024552;28;20560;-84
2022/05/17 04:17:57;;;;;;;12.88;4.47;;;;;;;12.75;93.92;101806.91;5005722;28;20048;-82
2022/05/17 04:20:24;;;;;;;10.55;4.55;;;;;;;12.82;93.83;101805.34;5023702;28;20033;-84
2022/05/17 04:22:52;;;;;;;9.65;5.22;;;;;;;12.88;93.72;101807.38;5022627;28;20033;-83
2022/05/17 04:25:21;;;;;;;9.95;5.10;;;;;;;12.92;93.62;101798.31;5021410;28;20089;-83
2022/05/17 04:27:47;;;;;;;7.93;4.45;;;;;;;12.96;93.52;101806.63;5040734;28;20042;-83
2022/05/17 04:30:13;;;;;;;9.70;4.43;;;;;;;13.00;93.54;101802.78;5021746;28;20025;-84
2022/05/17 04:32:40;;;;;;;10.48;3.97;;;;;;;13.05;93.45;101803.97;5022891;28;20037;-84
2022/05/17 04:35:06;;;;;;;8.05;4.95;;;;;;;13.10;93.67;101802.72;5007716;28;20057;-83
2022/05/17 04:37:32;;;;;;;10.85;4.72;;;;;;;13.10;94.32;101802.72;5019574;28;20029;-83
2022/05/17 04:39:57;;;;;;;9.30;4.10;;;;;;;13.11;94.37;101804.34;5022331;28;20045;-84
2022/05/17 04:42:23;;;;;;;9.27;4.15;;;;;;;13.15;94.49;101808.31;5021383;28;20128;-83
2022/05/17 04:44:49;;;;;;;9.77;4.53;;;;;;;13.19;94.56;101815.66;5022807;28;20113;-84
2022/05/17 04:47:15;;;;;;;12.48;5.63;;;;;;;13.26;94.26;101818.50;5023635;28;20030;-83
2022/05/17 04:49:41;;;;;;;9.00;4.30;;;;;;;13.32;94.46;101817.94;5004979;28;20689;-84
2022/05/17 04:52:07;;;;;;;12.20;4.95;;;;;;;13.40;94.43;101814.59;5023252;28;20030;-82
2022/05/17 04:54:33;;;;;;;7.78;4.50;;;;;;;13.46;94.79;101824.41;5022093;28;20041;-83
2022/05/17 04:56:58;;;;;;;8.52;4.95;;;;;;;13.50;94.99;101819.69;5023154;28;20037;-83
2022/05/17 04:59:23;;;;;;;9.23;4.93;;;;;;;13.53;94.75;101827.22;5025187;28;20061;-83
2022/05/17 05:01:49;;;;;;;7.40;5.15;;;;;;;13.58;94.61;101836.22;5022009;28;20026;-84
2022/05/17 05:04:16;;;;;;;10.13;4.75;;;;;;;13.61;95.06;101829.88;5003096;28;20038;-83
2022/05/17 05:06:41;;;;;;;8.75;5.00;;;;;;;13.66;94.78;101832.88;5021003;28;20762;-84
2022/05/17 05:09:07;;;;;;;8.60;4.85;;;;;;;13.73;94.65;101831.31;5020383;28;20041;-84
2022/05/17 05:11:34;;;;;;;15.93;5.63;;;;;;;13.77;94.49;101839.63;5004665;28;20052;-84
2022/05/17 05:14:00;;;;;;;12.90;5.63;;;;;;;13.87;94.28;101829.13;5020263;28;20021;-83
2022/05/17 05:16:25;;;;;;;9.68;5.63;;;;;;;13.89;94.36;101841.00;5019164;28;20383;-83
2022/05/17 05:18:51;;;;;;;8.02;4.80;;;;;;;13.92;94.28;101834.66;5021477;28;20518;-83
2022/05/17 05:21:17;;;;;;;9.82;4.70;;;;;;;13.99;94.17;101843.53;5021178;28;20469;-84
2022/05/17 05:23:43;;;;;;;18.25;5.78;;;;;;;14.08;93.77;101844.41;5002990;28;20033;-84
2022/05/17 05:26:11;;;;;;;11.77;4.40;;;;;;;14.13;92.94;101839.56;5019425;28;20112;-82
2022/05/17 05:28:37;;;;;;;17.98;5.15;;;;;;;14.28;92.76;101831.94;5038877;28;20553;-84
2022/05/17 05:31:03;;;;;;;11.10;4.97;;;;;;;14.38;92.84;101835.28;5022370;28;20029;-83
2022/05/17 05:33:31;;;;;;;8.13;4.53;;;;;;;14.38;92.54;101840.50;5036228;28;20022;-84
2022/05/17 05:35:58;;;;;;;15.88;5.60;;;;;;;14.48;91.44;101835.16;5025069;28;20423;-84
2022/05/17 05:38:24;;;;;;;12.60;5.65;;;;;;;14.61;89.23;101827.72;5025713;28;20029;-83
2022/05/17 05:40:50;;;;;;;11.30;4.82;;;;;;;14.59;88.78;101830.50;5025740;28;20033;-82
2022/05/17 05:43:15;;;;;;;12.60;4.53;;;;;;;14.58;88.78;101828.88;5028528;28;20091;-83
2022/05/17 05:45:41;;;;;;;11.45;4.90;;;;;;;14.70;87.31;101832.00;5022554;28;20056;-83
2022/05/17 05:48:07;;;;;;;14.57;4.72;;;;;;;14.75;87.08;101831.56;5024926;28;20447;-84
2022/05/17 05:50:33;;;;;;;13.68;4.38;;;;;;;14.85;86.38;101828.81;5025819;28;20111;-83
2022/05/17 05:53:01;;;;;;;9.75;5.07;;;;;;;14.93;86.27;101832.22;5022180;28;20045;-83
2022/05/17 05:55:27;;;;;;;6.88;3.88;;;;;;;15.10;85.72;101837.50;5024163;28;20044;-83
2022/05/17 05:57:52;;;;;;;14.68;5.32;;;;;;;15.30;85.14;101838.03;5023032;28;20026;-83
2022/05/17 06:00:21;;;;;;;14.77;5.80;;;;;;;15.48;83.79;101841.31;5026427;28;20033;-83
2022/05/17 06:02:46;;;;;;;12.85;5.50;;;;;;;15.52;82.78;101842.63;5027036;28;20091;-82
2022/05/17 06:05:12;;;;;;;15.15;5.57;;;;;;;15.52;82.36;101836.53;5023720;28;20029;-82
2022/05/17 06:07:38;;;;;;;15.57;5.97;;;;;;;15.50;81.99;101841.13;5026799;28;20273;-84
2022/05/17 06:10:05;;;;;;;18.45;6.38;;;;;;;15.44;81.70;101845.22;5009550;28;20033;-84
2022/05/17 06:12:31;;;;;;;14.43;5.15;;;;;;;15.43;82.32;101846.19;5025140;28;20037;-83
2022/05/17 06:14:57;;;;;;;18.73;4.80;;;;;;;15.50;81.55;101839.34;5010337;28;20036;-84
2022/05/17 06:17:27;;;;;;;20.27;6.55;;;;;;;15.47;82.12;101846.69;5024191;28;20843;-83
2022/05/17 06:19:56;;;;;;;18.52;5.70;;;;;;;15.48;82.46;101838.69;5022738;28;20033;-83
2022/05/17 06:22:22;;;;;;;20.23;5.68;;;;;;;15.41;82.81;101845.56;5009907;28;20619;-84
2022/05/17 06:24:48;;;;;;;14.48;4.97;;;;;;;15.49;82.72;101842.94;5025670;28;20052;-83
2022/05/17 06:27:13;;;;;;;13.73;6.20;;;;;;;15.62;82.13;101836.41;5022701;28;20041;-84
2022/05/17 06:29:39;;;;;;;17.85;5.70;;;;;;;15.76;81.79;101839.22;5023367;28;20080;-83
2022/05/17 06:32:08;;;;;;;10.13;4.85;;;;;;;15.85;81.31;101842.63;5024094;28;20504;-83
2022/05/17 06:34:34;;;;;;;17.73;4.78;;;;;;;16.01;81.27;101841.78;5021792;28;20044;-84
2022/05/17 06:37:00;;;;;;;14.60;5.68;;;;;;;16.24;80.64;101849.75;5025790;28;20030;-82
2022/05/17 06:39:26;;;;;;;12.73;4.85;;;;;;;16.64;79.42;101847.16;5009647;28;20048;-83
2022/05/17 06:41:53;;;;;;;15.30;4.47;;;;;;;16.95;78.37;101855.03;5026492;28;20874;-83
2022/05/17 06:44:19;;;;;;;12.27;5.80;;;;;;;17.36;74.05;101853.97;5026089;28;20553;-82
2022/05/17 06:46:44;;;;;;;16.90;4.03;;;;;;;17.80;72.23;101848.84;5026119;28;20021;-84
2022/05/17 06:49:10;;;;;;;15.38;4.75;;;;;;;18.24;72.02;101845.47;5024691;28;20022;-83
2022/05/17 06:51:37;;;;;;;15.65;4.30;;;;;;;18.51;70.15;101844.97;5024751;28;20842;-84
2022/05/17 06:54:03;;;;;;;20.67;4.50;;;;;;;18.37;69.46;101847.44;5025920;28;20060;-84
2022/05/17 06:56:29;;;;;;;13.27;4.22;;;;;;;18.17;69.89;101847.16;5024133;28;20406;-84
2022/05/17 06:58:55;;;;;;;13.60;4.07;;;;;;;18.27;70.45;101852.13;5028589;28;20064;-83
2022/05/17 07:01:21;;;;;;;14.98;3.83;;;;;;;18.48;68.63;101854.88;5026121;28;20044;-83
2022/05/17 07:03:49;;;;;;;11.75;3.63;;;;;;;18.59;69.75;101865.88;5026520;28;20048;-84
2022/05/17 07:06:14;;;;;;;18.67;6.50;;;;;;;18.76;70.70;101853.34;5011866;28;20025;-84
2022/05/17 07:08:41;;;;;;;12.55;3.95;;;;;;;19.19;69.98;101864.78;5022326;28;20025;-81
2022/05/17 07:13:52;;;;;;;13.65;4.90;;;;;;;19.49;67.06;101862.00;5040358;28;20121;-83
2022/05/17 07:16:18;;;;;;;14.25;5.28;;;;;;;19.64;66.61;101861.94;5040283;28;20034;-81
2022/05/17 07:18:44;;;;;;;9.45;4.70;;;;;;;19.83;66.38;101858.69;5026747;28;20044;-83
2022/05/17 07:21:11;;;;;;;14.32;5.25;;;;;;;19.89;66.33;101864.16;5024426;28;20498;-83
2022/05/17 07:23:38;;;;;;;10.85;4.15;;;;;;;20.40;64.28;101871.78;5024802;28;20752;-83
2022/05/17 07:26:04;;;;;;;11.55;3.72;;;;;;;20.29;62.28;101861.78;5041587;28;20037;-83
2022/05/17 07:28:30;;;;;;;12.43;5.35;;;;;;;20.28;63.23;101875.94;5036331;28;20625;-83
2022/05/17 07:30:55;;;;;;;10.55;3.40;;;;;;;20.55;63.92;101867.19;5026087;28;20030;-84
2022/05/17 07:33:21;;;;;;;11.60;4.68;;;;;;;21.03;61.71;101860.25;5023585;28;20710;-81
2022/05/17 07:35:47;;;;;;;16.38;4.22;;;;;;;21.30;60.20;101867.16;5025422;28;20425;-84
2022/05/17 07:38:14;;;;;;;8.40;4.32;;;;;;;21.64;60.25;101867.22;5026376;28;20041;-81
2022/05/17 07:40:41;;;;;;;16.38;3.97;;;;;;;21.80;60.64;101863.38;5021902;28;20104;-83
2022/05/17 07:43:07;;;;;;;16.52;4.78;;;;;;;21.72;58.01;101867.03;5024422;28;20427;-83
2022/05/17 07:45:33;;;;;;;17.20;4.00;;;;;;;21.35;59.11;101872.66;5020228;28;20025;-82
2022/05/17 07:47:58;;;;;;;9.85;3.55;;;;;;;21.51;59.14;101868.03;5021921;28;20059;-83
2022/05/17 07:50:24;;;;;;;16.73;4.63;;;;;;;21.45;59.59;101866.22;5022220;28;20095;-83
2022/05/17 07:52:49;;;;;;;12.00;4.35;;;;;;;21.44;59.40;101870.69;5035845;28;20037;-83
2022/05/17 07:55:15;;;;;;;11.27;3.90;;;;;;;21.21;60.95;101865.75;5023995;28;20032;-84
2022/05/17 07:57:40;;;;;;;11.38;4.05;;;;;;;21.23;60.16;101870.81;5022865;28;20487;-85
2022/05/17 08:00:07;;;;;;;17.08;4.53;;;;;;;21.04;61.08;101875.88;5024310;28;20087;-83
2022/05/17 08:02:37;;;;;;;17.20;4.50;;;;;;;20.82;61.73;101874.41;5020680;28;20057;-83
2022/05/17 08:05:03;;;;;;;10.45;3.50;;;;;;;20.72;62.88;101877.38;5024482;28;20033;-83
2022/05/17 08:07:28;;;;;;;15.40;4.38;;;;;;;20.71;63.72;101867.88;5024665;28;20030;-83
2022/05/17 08:09:54;;;;;;;9.93;3.50;;;;;;;20.72;64.80;101875.59;5042394;28;20052;-82
2022/05/17 08:12:20;;;;;;;15.10;4.10;;;;;;;20.88;63.36;101871.75;5024854;28;20430;-84
2022/05/17 08:14:47;;;;;;;15.13;4.65;;;;;;;20.91;61.74;101870.56;5024955;28;20025;-83
2022/05/17 08:17:12;;;;;;;14.98;3.13;;;;;;;20.79;63.36;101875.59;5028360;28;20040;-83
2022/05/17 08:19:38;;;;;;;13.32;2.67;;;;;;;20.91;62.02;101883.75;5022914;28;20037;-84
2022/05/17 08:22:05;;;;;;;10.60;3.13;;;;;;;21.00;59.59;101879.91;5027398;28;20544;-84
2022/05/17 08:27:31;;;;;;;14.38;2.72;;;;;;;21.11;60.22;101879.31;5025494;28;20052;-83
2022/05/17 08:27:32;;;;;;;14.50;3.10;;;;;;;21.65;56.13;101889.97;5021861;28;20041;-83
2022/05/17 08:30:03;;;;;;;9.18;2.15;;;;;;;21.88;55.75;101884.25;5026157;28;20026;-83
2022/05/17 08:35:13;;;;;;;12.77;3.05;;;;;;;22.27;54.88;101880.75;5024273;28;20690;-82
2022/05/17 08:37:38;;;;;;;8.57;2.30;;;;;;;22.31;54.83;101878.50;5019318;28;20149;-84
2022/05/17 08:40:04;;;;;;;11.10;2.63;;;;;;;22.21;53.71;101878.91;5021825;28;20033;-83
2022/05/17 08:42:56;;;;;;;10.30;1.88;;;;;;;22.10;54.68;101879.56;5021042;28;20121;-84
2022/05/17 08:45:39;;;;;;;3.95;1.38;;;;;;;22.01;55.54;101881.59;4986040;28;20120;-84
2022/05/17 08:48:13;;;;;;;7.53;1.55;;;;;;;22.03;56.13;101882.19;5019975;28;20099;-84
2022/05/17 08:50:39;;;;;;;8.98;2.47;;;;;;;22.16;53.96;101882.16;5020878;28;20037;-83
2022/05/17 08:53:10;;;;;;;7.15;1.65;;;;;;;22.29;51.45;101875.28;5021935;28;20045;-85
2022/05/17 08:55:40;;;;;;;8.98;2.53;;;;;;;22.34;52.14;101873.63;5023234;28;21709;-84
2022/05/17 08:58:28;;;;;;;7.60;1.90;;;;;;;22.47;52.54;101867.50;5038259;28;20033;-83
2022/05/17 09:01:02;;;;;;;10.18;2.47;;;;;;;22.64;53.63;101867.00;5020901;28;20372;-84
2022/05/17 09:03:50;;;;;;;6.35;1.83;;;;;;;22.67;51.58;101866.56;5022576;28;20041;-82
2022/05/17 09:06:24;;;;;;;6.22;2.10;;;;;;;22.71;52.43;101873.88;5024052;28;20502;-84
2022/05/17 09:08:59;;;;;;;7.60;2.63;;;;;;;22.64;52.88;101865.19;5023180;28;20401;-82
2022/05/17 09:11:43;;;;;;;14.35;2.33;;;;;;;22.86;52.80;101870.13;5037876;28;20477;-85
2022/05/17 09:14:16;;;;;;;13.77;2.88;;;;;;;22.90;52.38;101869.50;5007089;28;20075;-84
2022/05/17 09:16:47;;;;;;;8.75;2.40;;;;;;;22.78;54.05;101868.56;5027286;28;20101;-84
2022/05/17 09:19:16;;;;;;;8.13;1.98;;;;;;;22.63;52.19;101868.81;5020170;28;20064;-85
2022/05/17 09:21:44;;;;;;;10.43;2.15;;;;;;;22.44;52.92;101864.44;5026920;28;20045;-84
2022/05/17 09:24:17;;;;;;;7.40;2.45;;;;;;;22.45;53.39;101866.06;5029041;28;20040;-83
2022/05/17 09:27:02;;;;;;;7.22;1.83;;;;;;;22.44;52.48;101859.97;5027322;28;20087;-84
2022/05/17 09:29:38;;;;;;;6.15;1.77;;;;;;;22.32;54.65;101862.47;5021517;28;20033;-84
2022/05/17 09:32:07;;;;;;;6.97;2.28;;;;;;;22.23;55.28;101863.69;5020961;28;20095;-82
2022/05/17 09:34:39;;;;;;;6.55;1.80;;;;;;;22.31;54.88;101858.19;5023940;28;20661;-82
2022/05/17 09:37:17;;;;;;;5.65;1.90;;;;;;;22.31;54.81;101855.53;5022410;28;20443;-83
2022/05/17 09:39:47;;;;;;;9.98;2.22;;;;;;;22.45;54.41;101863.41;5010404;28;20064;-84
2022/05/17 09:42:29;;;;;;;9.40;1.50;;;;;;;22.57;53.16;101872.31;5022710;28;20029;-83
2022/05/17 09:44:56;;;;;;;11.98;1.90;;;;;;;22.52;53.41;101872.13;5025605;28;20037;-83
2022/05/17 09:47:31;;;;;;;13.75;2.28;;;;;;;22.58;52.32;101866.00;5011726;28;20036;-84
2022/05/17 09:52:59;;;;;;;9.40;2.55;;;;;;;22.70;52.69;101874.91;5043132;28;20033;-85
2022/05/17 09:55:31;;;;;;;12.30;3.17;;;;;;;22.65;51.99;101872.06;5022917;28;20104;-85
2022/05/17 09:58:05;;;;;;;11.93;2.40;;;;;;;22.75;50.77;101866.31;5025426;28;20393;-83
2022/05/17 10:00:44;;;;;;;5.43;2.22;;;;;;;22.44;51.85;101865.25;5007891;28;20469;-83
2022/05/17 10:03:12;;;;;;;8.07;2.10;;;;;;;22.35;52.66;101866.50;5025100;28;20037;-84
2022/05/17 10:05:41;;;;;;;9.95;2.50;;;;;;;22.36;52.81;101868.13;5019638;28;20033;-85
2022/05/17 10:08:13;;;;;;;8.73;1.73;;;;;;;22.35;51.86;101862.03;5010154;28;20044;-83
2022/05/17 10:10:43;;;;;;;11.48;2.00;;;;;;;22.47;52.40;101848.16;5023488;28;20045;-84
2022/05/17 10:13:20;;;;;;;12.10;3.08;;;;;;;22.54;52.18;101851.59;5023931;28;20326;-84
2022/05/17 10:15:50;;;;;;;9.30;2.00;;;;;;;22.68;51.24;101852.34;5041563;28;20044;-83
2022/05/17 10:18:35;;;;;;;6.50;1.90;;;;;;;22.60;52.74;101844.66;5024409;28;20108;-85
2022/05/17 10:21:12;;;;;;;7.93;2.22;;;;;;;22.71;51.03;101847.44;5023140;28;20048;-81
2022/05/17 10:23:48;;;;;;;5.43;2.05;;;;;;;22.58;52.76;101847.50;5023258;28;20069;-83
2022/05/17 10:26:19;;;;;;;10.68;2.33;;;;;;;22.61;52.87;101838.34;5023990;28;20024;-84
2022/05/17 10:28:59;;;;;;;10.00;2.58;;;;;;;22.66;50.59;101841.16;5006649;28;20069;-85
2022/05/17 10:31:28;;;;;;;9.20;1.95;;;;;;;22.60;53.32;101839.38;5008901;28;20022;-84
2022/05/17 10:34:15;;;;;;;5.55;1.60;;;;;;;22.57;52.50;101840.59;5007724;28;20041;-83
2022/05/17 10:36:44;;;;;;;9.48;2.53;;;;;;;22.65;53.53;101837.72;5020619;28;20038;-81
2022/05/17 10:39:09;;;;;;;16.38;2.88;;;;;;;22.90;53.09;101832.47;5021560;28;20029;-84
2022/05/17 10:41:35;;;;;;;9.55;3.08;;;;;;;23.15;53.13;101834.41;5005352;28;20116;-84
2022/05/17 10:44:02;;;;;;;9.50;2.25;;;;;;;23.15;52.00;101829.09;5008410;28;20059;-84
2022/05/17 10:46:37;;;;;;;10.55;1.88;;;;;;;23.22;52.88;101826.41;5025206;28;20076;-83
2022/05/17 10:49:20;;;;;;;6.30;2.20;;;;;;;23.25;52.66;101829.41;5023792;28;20037;-83
2022/05/17 10:52:14;;;;;;;12.00;2.95;;;;;;;23.25;51.55;101825.97;5009263;28;20072;-81
2022/05/17 10:54:55;;;;;;;8.52;2.20;;;;;;;23.22;52.39;101821.91;5020760;28;20482;-84
2022/05/17 10:57:42;;;;;;;10.30;2.00;;;;;;;23.28;52.99;101825.53;5025302;28;20069;-84
2022/05/17 11:00:18;;;;;;;7.78;2.67;;;;;;;23.21;50.64;101814.22;5041433;28;20044;-83
2022/05/17 11:02:52;;;;;;;10.55;3.10;;;;;;;23.19;51.37;101817.06;5020574;28;20192;-84
2022/05/17 11:05:34;;;;;;;10.80;3.50;;;;;;;23.13;52.06;101817.91;5009911;28;20529;-83
2022/05/17 11:08:28;;;;;;;6.63;2.28;;;;;;;23.07;52.81;101819.56;5018411;28;20037;-83
2022/05/17 11:11:44;;;;;;;14.90;3.78;;;;;;;23.27;52.55;101811.50;5019240;28;20085;-83
2022/05/17 11:14:30;;;;;;;7.32;2.33;;;;;;;23.41;52.62;101801.59;4935296;28;20077;-83
2022/05/17 11:17:07;;;;;;;11.55;2.67;;;;;;;23.49;51.24;101806.63;4949411;28;20340;-83
2022/05/17 11:19:43;;;;;;;12.60;3.28;;;;;;;23.48;52.31;101799.69;5001855;28;20073;-83
2022/05/17 11:22:20;;;;;;;8.48;1.98;;;;;;;23.62;50.33;101794.28;5024235;28;20152;-83
2022/05/17 11:25:16;;;;;;;4.78;2.10;;;;;;;23.70;51.22;101794.00;5007966;28;20041;-81
2022/05/17 11:28:00;;;;;;;10.90;2.63;;;;;;;23.80;51.99;101791.69;5017962;28;20042;-83
2022/05/17 11:30:49;;;;;;;6.85;2.10;;;;;;;24.16;50.10;101791.88;5010384;28;20060;-83
2022/05/17 11:33:24;;;;;;;12.20;2.70;;;;;;;24.12;48.22;101785.41;5007685;28;20041;-84
2022/05/17 11:36:03;;;;;;;9.70;2.30;;;;;;;24.10;49.58;101790.94;5024473;28;20025;-83
2022/05/17 11:38:34;;;;;;;7.63;2.05;;;;;;;24.34;48.48;101783.13;5021873;28;20448;-85